sensor_id;sensor_type;location;lat;lon;timestamp;P1;durP1;ratioP1;P2;durP2;ratioP2
71320;SDS011;59118;54.322;18.576;2022-09-09T00:00:55;6.57;;;1.67;;
71320;SDS011;59118;54.322;18.576;2022-09-09T00:03:27;6.80;;;1.48;;
71320;SDS011;59118;54.322;18.576;2022-09-09T00:06:10;4.82;;;1.63;;
71320;SDS011;59118;54.322;18.576;2022-09-09T00:08:45;5.43;;;1.50;;
71320;SDS011;59118;54.322;18.576;2022-09-09T00:11:36;4.18;;;1.42;;
71320;SDS011;59118;54.322;18.576;2022-09-09T00:14:18;5.25;;;1.33;;
71320;SDS011;59118;54.322;18.576;2022-09-09T00:16:54;5.70;;;1.73;;
71320;SDS011;59118;54.322;18.576;2022-09-09T00:25:01;9.25;;;1.40;;
71320;SDS011;59118;54.322;18.576;2022-09-09T00:30:19;4.53;;;1.50;;
71320;SDS011;59118;54.322;18.576;2022-09-09T00:32:49;2.95;;;1.35;;
71320;SDS011;59118;54.322;18.576;2022-09-09T00:35:18;5.13;;;1.70;;
71320;SDS011;59118;54.322;18.576;2022-09-09T00:37:52;5.53;;;1.98;;
71320;SDS011;59118;54.322;18.576;2022-09-09T00:40:28;5.57;;;1.60;;
71320;SDS011;59118;54.322;18.576;2022-09-09T00:43:02;3.78;;;1.60;;
71320;SDS011;59118;54.322;18.576;2022-09-09T00:46:00;3.42;;;1.23;;
71320;SDS011;59118;54.322;18.576;2022-09-09T00:48:43;4.37;;;1.30;;
71320;SDS011;59118;54.322;18.576;2022-09-09T00:51:36;5.32;;;1.38;;
71320;SDS011;59118;54.322;18.576;2022-09-09T00:59:50;3.60;;;1.50;;
71320;SDS011;59118;54.322;18.576;2022-09-09T01:02:21;2.90;;;1.47;;
71320;SDS011;59118;54.322;18.576;2022-09-09T01:04:57;5.22;;;1.48;;
71320;SDS011;59118;54.322;18.576;2022-09-09T01:07:29;5.00;;;1.70;;
71320;SDS011;59118;54.322;18.576;2022-09-09T01:09:56;4.03;;;1.20;;
71320;SDS011;59118;54.322;18.576;2022-09-09T01:15:12;6.03;;;1.57;;
71320;SDS011;59118;54.322;18.576;2022-09-09T01:20:15;4.47;;;1.50;;
71320;SDS011;59118;54.322;18.576;2022-09-09T01:23:00;5.10;;;1.70;;
71320;SDS011;59118;54.322;18.576;2022-09-09T01:29:04;7.57;;;1.50;;
71320;SDS011;59118;54.322;18.576;2022-09-09T01:31:38;5.00;;;1.48;;
71320;SDS011;59118;54.322;18.576;2022-09-09T01:34:09;6.57;;;1.65;;
71320;SDS011;59118;54.322;18.576;2022-09-09T01:36:47;5.50;;;1.30;;
71320;SDS011;59118;54.322;18.576;2022-09-09T01:39:19;4.60;;;1.58;;
71320;SDS011;59118;54.322;18.576;2022-09-09T01:41:46;5.03;;;1.40;;
71320;SDS011;59118;54.322;18.576;2022-09-09T01:44:12;6.40;;;1.50;;
71320;SDS011;59118;54.322;18.576;2022-09-09T01:46:39;6.50;;;1.30;;
71320;SDS011;59118;54.322;18.576;2022-09-09T01:49:06;3.47;;;1.40;;
71320;SDS011;59118;54.322;18.576;2022-09-09T01:51:34;6.57;;;1.45;;
71320;SDS011;59118;54.322;18.576;2022-09-09T01:54:02;5.63;;;1.60;;
71320;SDS011;59118;54.322;18.576;2022-09-09T01:59:15;8.60;;;1.70;;
71320;SDS011;59118;54.322;18.576;2022-09-09T02:01:57;10.43;;;1.92;;
71320;SDS011;59118;54.322;18.576;2022-09-09T02:07:23;5.93;;;1.63;;
71320;SDS011;59118;54.322;18.576;2022-09-09T02:13:18;4.13;;;1.40;;
71320;SDS011;59118;54.322;18.576;2022-09-09T02:15:49;4.53;;;1.27;;
71320;SDS011;59118;54.322;18.576;2022-09-09T02:18:21;6.80;;;1.80;;
71320;SDS011;59118;54.322;18.576;2022-09-09T02:20:52;6.77;;;1.80;;
71320;SDS011;59118;54.322;18.576;2022-09-09T02:23:20;6.47;;;2.05;;
71320;SDS011;59118;54.322;18.576;2022-09-09T02:25:47;5.38;;;1.65;;
71320;SDS011;59118;54.322;18.576;2022-09-09T02:28:15;7.18;;;1.55;;
71320;SDS011;59118;54.322;18.576;2022-09-09T02:30:42;3.85;;;1.25;;
71320;SDS011;59118;54.322;18.576;2022-09-09T02:33:12;8.40;;;1.70;;
71320;SDS011;59118;54.322;18.576;2022-09-09T02:35:39;5.55;;;1.42;;
71320;SDS011;59118;54.322;18.576;2022-09-09T02:38:08;4.88;;;1.50;;
71320;SDS011;59118;54.322;18.576;2022-09-09T02:40:37;3.92;;;1.35;;
71320;SDS011;59118;54.322;18.576;2022-09-09T02:43:03;4.18;;;1.45;;
71320;SDS011;59118;54.322;18.576;2022-09-09T02:45:31;4.30;;;1.57;;
71320;SDS011;59118;54.322;18.576;2022-09-09T02:48:25;4.00;;;1.58;;
71320;SDS011;59118;54.322;18.576;2022-09-09T02:51:06;5.88;;;1.60;;
71320;SDS011;59118;54.322;18.576;2022-09-09T02:53:40;8.20;;;1.95;;
71320;SDS011;59118;54.322;18.576;2022-09-09T02:56:18;3.83;;;1.48;;
71320;SDS011;59118;54.322;18.576;2022-09-09T02:58:46;4.53;;;1.73;;
71320;SDS011;59118;54.322;18.576;2022-09-09T03:01:13;7.28;;;1.77;;
71320;SDS011;59118;54.322;18.576;2022-09-09T03:03:40;5.80;;;1.70;;
71320;SDS011;59118;54.322;18.576;2022-09-09T03:06:08;10.50;;;1.75;;
71320;SDS011;59118;54.322;18.576;2022-09-09T03:08:36;5.78;;;1.88;;
71320;SDS011;59118;54.322;18.576;2022-09-09T03:11:02;5.07;;;1.60;;
71320;SDS011;59118;54.322;18.576;2022-09-09T03:13:29;4.57;;;1.60;;
71320;SDS011;59118;54.322;18.576;2022-09-09T03:15:56;4.65;;;1.83;;
71320;SDS011;59118;54.322;18.576;2022-09-09T03:18:22;6.22;;;1.70;;
71320;SDS011;59118;54.322;18.576;2022-09-09T03:20:49;5.75;;;1.85;;
71320;SDS011;59118;54.322;18.576;2022-09-09T03:23:15;6.30;;;2.10;;
71320;SDS011;59118;54.322;18.576;2022-09-09T03:25:48;10.73;;;2.45;;
71320;SDS011;59118;54.322;18.576;2022-09-09T03:28:15;7.70;;;2.58;;
71320;SDS011;59118;54.322;18.576;2022-09-09T03:30:42;7.80;;;2.70;;
71320;SDS011;59118;54.322;18.576;2022-09-09T03:33:08;6.47;;;2.90;;
71320;SDS011;59118;54.322;18.576;2022-09-09T03:35:35;5.23;;;2.47;;
71320;SDS011;59118;54.322;18.576;2022-09-09T03:38:02;7.15;;;2.90;;
71320;SDS011;59118;54.322;18.576;2022-09-09T03:40:28;9.30;;;3.08;;
71320;SDS011;59118;54.322;18.576;2022-09-09T03:42:55;5.50;;;2.88;;
71320;SDS011;59118;54.322;18.576;2022-09-09T03:45:21;6.95;;;3.20;;
71320;SDS011;59118;54.322;18.576;2022-09-09T03:47:48;10.60;;;3.50;;
71320;SDS011;59118;54.322;18.576;2022-09-09T03:50:15;11.93;;;3.55;;
71320;SDS011;59118;54.322;18.576;2022-09-09T03:52:42;10.82;;;3.50;;
71320;SDS011;59118;54.322;18.576;2022-09-09T03:55:09;11.43;;;4.05;;
71320;SDS011;59118;54.322;18.576;2022-09-09T03:57:35;9.38;;;3.90;;
71320;SDS011;59118;54.322;18.576;2022-09-09T04:00:03;11.70;;;4.20;;
71320;SDS011;59118;54.322;18.576;2022-09-09T04:02:31;11.50;;;4.50;;
71320;SDS011;59118;54.322;18.576;2022-09-09T04:04:57;10.88;;;3.75;;
71320;SDS011;59118;54.322;18.576;2022-09-09T04:07:24;8.57;;;3.53;;
71320;SDS011;59118;54.322;18.576;2022-09-09T04:09:51;11.98;;;3.65;;
71320;SDS011;59118;54.322;18.576;2022-09-09T04:12:18;8.37;;;4.00;;
71320;SDS011;59118;54.322;18.576;2022-09-09T04:14:45;9.77;;;3.70;;
71320;SDS011;59118;54.322;18.576;2022-09-09T04:17:12;8.75;;;3.70;;
71320;SDS011;59118;54.322;18.576;2022-09-09T04:19:39;10.95;;;4.30;;
71320;SDS011;59118;54.322;18.576;2022-09-09T04:22:05;8.93;;;4.25;;
71320;SDS011;59118;54.322;18.576;2022-09-09T04:24:32;9.50;;;4.63;;
71320;SDS011;59118;54.322;18.576;2022-09-09T04:26:58;12.13;;;4.50;;
71320;SDS011;59118;54.322;18.576;2022-09-09T04:29:25;10.48;;;4.70;;
71320;SDS011;59118;54.322;18.576;2022-09-09T04:31:51;10.48;;;4.03;;
71320;SDS011;59118;54.322;18.576;2022-09-09T04:34:18;8.15;;;3.78;;
71320;SDS011;59118;54.322;18.576;2022-09-09T04:36:44;8.33;;;4.40;;
71320;SDS011;59118;54.322;18.576;2022-09-09T04:39:12;8.25;;;3.97;;
71320;SDS011;59118;54.322;18.576;2022-09-09T04:41:39;9.55;;;4.07;;
71320;SDS011;59118;54.322;18.576;2022-09-09T04:44:05;11.52;;;4.50;;
71320;SDS011;59118;54.322;18.576;2022-09-09T04:46:32;9.93;;;4.25;;
71320;SDS011;59118;54.322;18.576;2022-09-09T04:49:00;11.13;;;4.70;;
71320;SDS011;59118;54.322;18.576;2022-09-09T04:51:26;11.40;;;4.80;;
71320;SDS011;59118;54.322;18.576;2022-09-09T04:53:54;10.05;;;4.20;;
71320;SDS011;59118;54.322;18.576;2022-09-09T04:56:20;10.63;;;4.57;;
71320;SDS011;59118;54.322;18.576;2022-09-09T04:58:47;10.35;;;4.10;;
71320;SDS011;59118;54.322;18.576;2022-09-09T05:01:16;11.93;;;4.40;;
71320;SDS011;59118;54.322;18.576;2022-09-09T05:03:44;10.75;;;3.45;;
71320;SDS011;59118;54.322;18.576;2022-09-09T05:06:15;9.68;;;4.43;;
71320;SDS011;59118;54.322;18.576;2022-09-09T05:08:44;10.38;;;4.10;;
71320;SDS011;59118;54.322;18.576;2022-09-09T05:11:21;9.00;;;3.53;;
71320;SDS011;59118;54.322;18.576;2022-09-09T05:13:52;7.30;;;3.30;;
71320;SDS011;59118;54.322;18.576;2022-09-09T05:16:21;9.73;;;3.53;;
71320;SDS011;59118;54.322;18.576;2022-09-09T05:18:49;7.18;;;3.55;;
71320;SDS011;59118;54.322;18.576;2022-09-09T05:21:18;8.32;;;3.20;;
71320;SDS011;59118;54.322;18.576;2022-09-09T05:23:46;10.30;;;4.13;;
71320;SDS011;59118;54.322;18.576;2022-09-09T05:26:13;8.73;;;3.90;;
71320;SDS011;59118;54.322;18.576;2022-09-09T05:28:43;9.75;;;3.63;;
71320;SDS011;59118;54.322;18.576;2022-09-09T05:31:10;8.77;;;3.40;;
71320;SDS011;59118;54.322;18.576;2022-09-09T05:33:40;8.45;;;3.55;;
71320;SDS011;59118;54.322;18.576;2022-09-09T05:36:10;12.80;;;5.15;;
71320;SDS011;59118;54.322;18.576;2022-09-09T05:38:39;8.50;;;3.80;;
71320;SDS011;59118;54.322;18.576;2022-09-09T05:41:07;10.20;;;3.72;;
71320;SDS011;59118;54.322;18.576;2022-09-09T05:43:34;10.88;;;4.00;;
71320;SDS011;59118;54.322;18.576;2022-09-09T05:46:05;9.38;;;3.90;;
71320;SDS011;59118;54.322;18.576;2022-09-09T05:48:34;9.43;;;3.83;;
71320;SDS011;59118;54.322;18.576;2022-09-09T05:51:06;5.97;;;3.00;;
71320;SDS011;59118;54.322;18.576;2022-09-09T05:53:34;10.23;;;3.45;;
71320;SDS011;59118;54.322;18.576;2022-09-09T05:56:01;8.50;;;3.30;;
71320;SDS011;59118;54.322;18.576;2022-09-09T05:58:35;5.07;;;2.50;;
71320;SDS011;59118;54.322;18.576;2022-09-09T06:01:08;11.07;;;3.20;;
71320;SDS011;59118;54.322;18.576;2022-09-09T06:03:37;10.43;;;2.93;;
71320;SDS011;59118;54.322;18.576;2022-09-09T06:06:05;6.50;;;3.15;;
71320;SDS011;59118;54.322;18.576;2022-09-09T06:08:41;8.18;;;3.33;;
71320;SDS011;59118;54.322;18.576;2022-09-09T06:11:11;6.90;;;3.10;;
71320;SDS011;59118;54.322;18.576;2022-09-09T06:13:40;6.60;;;2.90;;
71320;SDS011;59118;54.322;18.576;2022-09-09T06:16:10;6.87;;;2.70;;
71320;SDS011;59118;54.322;18.576;2022-09-09T06:18:38;7.45;;;2.60;;
71320;SDS011;59118;54.322;18.576;2022-09-09T06:21:05;7.93;;;2.63;;
71320;SDS011;59118;54.322;18.576;2022-09-09T06:23:33;6.35;;;2.65;;
71320;SDS011;59118;54.322;18.576;2022-09-09T06:26:06;6.82;;;2.58;;
71320;SDS011;59118;54.322;18.576;2022-09-09T06:28:35;7.43;;;2.53;;
71320;SDS011;59118;54.322;18.576;2022-09-09T06:31:03;9.10;;;2.90;;
71320;SDS011;59118;54.322;18.576;2022-09-09T06:33:35;5.90;;;2.95;;
71320;SDS011;59118;54.322;18.576;2022-09-09T06:36:06;9.27;;;2.85;;
71320;SDS011;59118;54.322;18.576;2022-09-09T06:38:33;5.95;;;2.60;;
71320;SDS011;59118;54.322;18.576;2022-09-09T06:41:00;5.70;;;2.67;;
71320;SDS011;59118;54.322;18.576;2022-09-09T06:43:29;6.88;;;2.88;;
71320;SDS011;59118;54.322;18.576;2022-09-09T06:45:59;8.13;;;3.35;;
71320;SDS011;59118;54.322;18.576;2022-09-09T06:48:30;8.25;;;3.10;;
71320;SDS011;59118;54.322;18.576;2022-09-09T06:51:00;7.93;;;2.85;;
71320;SDS011;59118;54.322;18.576;2022-09-09T06:53:31;7.90;;;2.80;;
71320;SDS011;59118;54.322;18.576;2022-09-09T06:56:13;7.40;;;2.75;;
71320;SDS011;59118;54.322;18.576;2022-09-09T06:58:45;4.70;;;2.50;;
71320;SDS011;59118;54.322;18.576;2022-09-09T07:01:13;7.90;;;3.10;;
71320;SDS011;59118;54.322;18.576;2022-09-09T07:03:45;5.65;;;2.58;;
71320;SDS011;59118;54.322;18.576;2022-09-09T07:06:45;6.40;;;2.40;;
71320;SDS011;59118;54.322;18.576;2022-09-09T07:09:36;4.72;;;2.35;;
71320;SDS011;59118;54.322;18.576;2022-09-09T07:12:04;6.15;;;2.38;;
71320;SDS011;59118;54.322;18.576;2022-09-09T07:14:32;6.40;;;2.60;;
71320;SDS011;59118;54.322;18.576;2022-09-09T07:17:00;8.25;;;2.78;;
71320;SDS011;59118;54.322;18.576;2022-09-09T07:19:26;5.87;;;2.13;;
71320;SDS011;59118;54.322;18.576;2022-09-09T07:21:53;4.97;;;2.55;;
71320;SDS011;59118;54.322;18.576;2022-09-09T07:24:19;5.25;;;2.42;;
71320;SDS011;59118;54.322;18.576;2022-09-09T07:26:46;8.30;;;2.90;;
71320;SDS011;59118;54.322;18.576;2022-09-09T07:29:13;8.18;;;3.47;;
71320;SDS011;59118;54.322;18.576;2022-09-09T07:31:46;6.70;;;2.80;;
71320;SDS011;59118;54.322;18.576;2022-09-09T07:34:15;7.57;;;2.63;;
71320;SDS011;59118;54.322;18.576;2022-09-09T07:36:41;7.55;;;3.65;;
71320;SDS011;59118;54.322;18.576;2022-09-09T07:39:09;8.10;;;3.40;;
71320;SDS011;59118;54.322;18.576;2022-09-09T07:41:41;10.82;;;3.60;;
71320;SDS011;59118;54.322;18.576;2022-09-09T07:44:13;5.90;;;2.73;;
71320;SDS011;59118;54.322;18.576;2022-09-09T07:46:44;7.82;;;3.40;;
71320;SDS011;59118;54.322;18.576;2022-09-09T07:49:13;6.50;;;2.70;;
71320;SDS011;59118;54.322;18.576;2022-09-09T07:51:42;6.18;;;2.80;;
71320;SDS011;59118;54.322;18.576;2022-09-09T07:54:15;10.15;;;3.70;;
71320;SDS011;59118;54.322;18.576;2022-09-09T07:56:46;6.13;;;2.57;;
71320;SDS011;59118;54.322;18.576;2022-09-09T07:59:13;6.95;;;2.95;;
71320;SDS011;59118;54.322;18.576;2022-09-09T08:01:41;8.45;;;3.10;;
71320;SDS011;59118;54.322;18.576;2022-09-09T08:04:16;6.07;;;2.80;;
71320;SDS011;59118;54.322;18.576;2022-09-09T08:06:48;9.07;;;3.15;;
71320;SDS011;59118;54.322;18.576;2022-09-09T08:09:16;6.10;;;3.20;;
71320;SDS011;59118;54.322;18.576;2022-09-09T08:11:43;11.25;;;3.28;;
71320;SDS011;59118;54.322;18.576;2022-09-09T08:14:11;11.02;;;3.00;;
71320;SDS011;59118;54.322;18.576;2022-09-09T08:16:38;7.00;;;3.45;;
71320;SDS011;59118;54.322;18.576;2022-09-09T08:19:15;8.45;;;3.15;;
71320;SDS011;59118;54.322;18.576;2022-09-09T08:21:43;7.67;;;2.93;;
71320;SDS011;59118;54.322;18.576;2022-09-09T08:24:10;6.53;;;2.63;;
71320;SDS011;59118;54.322;18.576;2022-09-09T08:26:42;8.80;;;3.60;;
71320;SDS011;59118;54.322;18.576;2022-09-09T08:29:11;5.93;;;3.20;;
71320;SDS011;59118;54.322;18.576;2022-09-09T08:31:40;6.55;;;3.20;;
71320;SDS011;59118;54.322;18.576;2022-09-09T08:34:11;6.17;;;3.20;;
71320;SDS011;59118;54.322;18.576;2022-09-09T08:36:42;7.63;;;2.75;;
71320;SDS011;59118;54.322;18.576;2022-09-09T08:39:11;9.20;;;2.85;;
71320;SDS011;59118;54.322;18.576;2022-09-09T08:47:29;8.13;;;3.30;;
71320;SDS011;59118;54.322;18.576;2022-09-09T08:53:04;8.23;;;3.70;;
71320;SDS011;59118;54.322;18.576;2022-09-09T08:55:44;7.38;;;3.33;;
71320;SDS011;59118;54.322;18.576;2022-09-09T09:09:03;7.03;;;3.28;;
71320;SDS011;59118;54.322;18.576;2022-09-09T09:11:35;8.38;;;3.50;;
71320;SDS011;59118;54.322;18.576;2022-09-09T09:14:23;6.20;;;3.10;;
71320;SDS011;59118;54.322;18.576;2022-09-09T09:16:56;8.00;;;3.20;;
71320;SDS011;59118;54.322;18.576;2022-09-09T09:19:26;8.57;;;3.63;;
71320;SDS011;59118;54.322;18.576;2022-09-09T09:30:38;8.00;;;4.15;;
71320;SDS011;59118;54.322;18.576;2022-09-09T09:35:51;7.75;;;3.53;;
71320;SDS011;59118;54.322;18.576;2022-09-09T09:38:20;6.47;;;3.08;;
71320;SDS011;59118;54.322;18.576;2022-09-09T09:41:11;8.93;;;3.73;;
71320;SDS011;59118;54.322;18.576;2022-09-09T09:43:39;11.18;;;4.68;;
71320;SDS011;59118;54.322;18.576;2022-09-09T09:46:18;8.80;;;3.97;;
71320;SDS011;59118;54.322;18.576;2022-09-09T09:48:56;7.45;;;3.95;;
71320;SDS011;59118;54.322;18.576;2022-09-09T09:51:26;9.90;;;4.78;;
71320;SDS011;59118;54.322;18.576;2022-09-09T09:54:01;8.67;;;4.43;;
71320;SDS011;59118;54.322;18.576;2022-09-09T09:56:41;8.07;;;4.50;;
71320;SDS011;59118;54.322;18.576;2022-09-09T09:59:32;10.63;;;4.60;;
71320;SDS011;59118;54.322;18.576;2022-09-09T10:02:16;10.15;;;3.97;;
71320;SDS011;59118;54.322;18.576;2022-09-09T10:05:01;7.57;;;4.50;;
71320;SDS011;59118;54.322;18.576;2022-09-09T10:08:10;9.73;;;4.60;;
71320;SDS011;59118;54.322;18.576;2022-09-09T10:17:21;9.52;;;5.20;;
71320;SDS011;59118;54.322;18.576;2022-09-09T10:22:35;9.90;;;4.77;;
71320;SDS011;59118;54.322;18.576;2022-09-09T10:25:20;8.52;;;4.50;;
71320;SDS011;59118;54.322;18.576;2022-09-09T10:27:59;9.85;;;4.93;;
71320;SDS011;59118;54.322;18.576;2022-09-09T10:33:55;9.18;;;5.22;;
71320;SDS011;59118;54.322;18.576;2022-09-09T10:36:35;11.40;;;5.63;;
71320;SDS011;59118;54.322;18.576;2022-09-09T10:39:15;9.60;;;4.57;;
71320;SDS011;59118;54.322;18.576;2022-09-09T10:42:04;10.38;;;5.32;;
71320;SDS011;59118;54.322;18.576;2022-09-09T10:49:59;9.03;;;5.80;;
71320;SDS011;59118;54.322;18.576;2022-09-09T10:55:51;10.55;;;6.28;;
71320;SDS011;59118;54.322;18.576;2022-09-09T10:58:29;10.95;;;5.93;;
71320;SDS011;59118;54.322;18.576;2022-09-09T11:01:22;12.32;;;6.32;;
71320;SDS011;59118;54.322;18.576;2022-09-09T11:04:10;11.87;;;6.40;;
71320;SDS011;59118;54.322;18.576;2022-09-09T11:06:44;12.43;;;6.45;;
71320;SDS011;59118;54.322;18.576;2022-09-09T11:09:15;12.95;;;6.22;;
71320;SDS011;59118;54.322;18.576;2022-09-09T11:11:46;11.63;;;5.28;;
71320;SDS011;59118;54.322;18.576;2022-09-09T11:14:32;11.55;;;6.78;;
71320;SDS011;59118;54.322;18.576;2022-09-09T11:17:26;10.70;;;7.00;;
71320;SDS011;59118;54.322;18.576;2022-09-09T11:19:53;12.75;;;7.40;;
71320;SDS011;59118;54.322;18.576;2022-09-09T11:30:17;11.47;;;6.97;;
71320;SDS011;59118;54.322;18.576;2022-09-09T11:33:15;11.13;;;6.35;;
71320;SDS011;59118;54.322;18.576;2022-09-09T11:36:01;12.50;;;7.10;;
71320;SDS011;59118;54.322;18.576;2022-09-09T11:38:52;12.88;;;6.30;;
71320;SDS011;59118;54.322;18.576;2022-09-09T11:41:33;11.98;;;7.15;;
71320;SDS011;59118;54.322;18.576;2022-09-09T11:44:08;11.30;;;6.63;;
71320;SDS011;59118;54.322;18.576;2022-09-09T11:46:37;10.50;;;6.97;;
71320;SDS011;59118;54.322;18.576;2022-09-09T11:49:05;12.55;;;6.93;;
71320;SDS011;59118;54.322;18.576;2022-09-09T11:51:33;10.95;;;6.22;;
71320;SDS011;59118;54.322;18.576;2022-09-09T11:54:01;12.43;;;6.65;;
71320;SDS011;59118;54.322;18.576;2022-09-09T11:56:32;13.27;;;7.10;;
71320;SDS011;59118;54.322;18.576;2022-09-09T11:59:19;10.27;;;6.22;;
71320;SDS011;59118;54.322;18.576;2022-09-09T12:01:50;10.23;;;6.72;;
71320;SDS011;59118;54.322;18.576;2022-09-09T12:04:47;9.75;;;6.50;;
71320;SDS011;59118;54.322;18.576;2022-09-09T12:12:35;12.88;;;7.25;;
71320;SDS011;59118;54.322;18.576;2022-09-09T12:17:45;13.65;;;7.40;;
71320;SDS011;59118;54.322;18.576;2022-09-09T12:20:33;13.52;;;7.13;;
71320;SDS011;59118;54.322;18.576;2022-09-09T12:34:13;14.43;;;7.15;;
71320;SDS011;59118;54.322;18.576;2022-09-09T12:36:43;11.33;;;7.63;;
71320;SDS011;59118;54.322;18.576;2022-09-09T12:39:29;13.88;;;7.78;;
71320;SDS011;59118;54.322;18.576;2022-09-09T12:42:00;13.73;;;7.88;;
71320;SDS011;59118;54.322;18.576;2022-09-09T12:44:29;13.93;;;8.52;;
71320;SDS011;59118;54.322;18.576;2022-09-09T12:46:56;16.83;;;8.10;;
71320;SDS011;59118;54.322;18.576;2022-09-09T12:49:28;12.23;;;8.13;;
71320;SDS011;59118;54.322;18.576;2022-09-09T12:52:04;12.65;;;8.32;;
71320;SDS011;59118;54.322;18.576;2022-09-09T12:54:34;14.15;;;8.50;;
71320;SDS011;59118;54.322;18.576;2022-09-09T12:57:01;14.30;;;9.27;;
71320;SDS011;59118;54.322;18.576;2022-09-09T12:59:35;15.10;;;8.80;;
71320;SDS011;59118;54.322;18.576;2022-09-09T13:02:10;15.80;;;8.70;;
71320;SDS011;59118;54.322;18.576;2022-09-09T13:04:42;13.02;;;8.57;;
71320;SDS011;59118;54.322;18.576;2022-09-09T13:07:10;13.55;;;9.10;;
71320;SDS011;59118;54.322;18.576;2022-09-09T13:09:40;14.05;;;8.63;;
71320;SDS011;59118;54.322;18.576;2022-09-09T13:12:09;13.20;;;9.32;;
71320;SDS011;59118;54.322;18.576;2022-09-09T13:14:39;13.73;;;7.67;;
71320;SDS011;59118;54.322;18.576;2022-09-09T13:17:22;14.40;;;9.10;;
71320;SDS011;59118;54.322;18.576;2022-09-09T13:19:55;15.13;;;9.25;;
71320;SDS011;59118;54.322;18.576;2022-09-09T13:22:35;15.88;;;9.75;;
71320;SDS011;59118;54.322;18.576;2022-09-09T13:27:33;13.70;;;8.60;;
71320;SDS011;59118;54.322;18.576;2022-09-09T13:35:50;15.73;;;10.30;;
71320;SDS011;59118;54.322;18.576;2022-09-09T13:38:19;16.20;;;10.43;;
71320;SDS011;59118;54.322;18.576;2022-09-09T13:40:56;16.03;;;10.77;;
71320;SDS011;59118;54.322;18.576;2022-09-09T13:43:25;15.65;;;10.38;;
71320;SDS011;59118;54.322;18.576;2022-09-09T13:45:53;17.95;;;10.77;;
71320;SDS011;59118;54.322;18.576;2022-09-09T13:48:40;15.93;;;10.52;;
71320;SDS011;59118;54.322;18.576;2022-09-09T13:51:21;16.27;;;11.05;;
71320;SDS011;59118;54.322;18.576;2022-09-09T13:54:06;16.70;;;10.07;;
71320;SDS011;59118;54.322;18.576;2022-09-09T13:56:35;17.08;;;10.48;;
71320;SDS011;59118;54.322;18.576;2022-09-09T13:59:03;18.55;;;10.73;;
71320;SDS011;59118;54.322;18.576;2022-09-09T14:01:31;17.45;;;10.82;;
71320;SDS011;59118;54.322;18.576;2022-09-09T14:03:59;16.40;;;10.52;;
71320;SDS011;59118;54.322;18.576;2022-09-09T14:06:26;19.10;;;10.20;;
71320;SDS011;59118;54.322;18.576;2022-09-09T14:08:55;16.25;;;9.98;;
71320;SDS011;59118;54.322;18.576;2022-09-09T14:11:24;16.90;;;10.52;;
71320;SDS011;59118;54.322;18.576;2022-09-09T14:13:51;18.17;;;10.30;;
71320;SDS011;59118;54.322;18.576;2022-09-09T14:16:17;20.75;;;11.30;;
71320;SDS011;59118;54.322;18.576;2022-09-09T14:18:44;19.00;;;12.03;;
71320;SDS011;59118;54.322;18.576;2022-09-09T14:21:11;19.13;;;12.00;;
71320;SDS011;59118;54.322;18.576;2022-09-09T14:23:38;19.35;;;12.07;;
71320;SDS011;59118;54.322;18.576;2022-09-09T14:26:06;22.58;;;12.73;;
71320;SDS011;59118;54.322;18.576;2022-09-09T14:28:32;20.73;;;11.85;;
71320;SDS011;59118;54.322;18.576;2022-09-09T14:31:19;22.83;;;11.67;;
71320;SDS011;59118;54.322;18.576;2022-09-09T14:33:47;20.17;;;11.77;;
71320;SDS011;59118;54.322;18.576;2022-09-09T14:36:13;22.95;;;11.73;;
71320;SDS011;59118;54.322;18.576;2022-09-09T14:38:41;22.20;;;11.68;;
71320;SDS011;59118;54.322;18.576;2022-09-09T14:41:09;20.30;;;11.85;;
71320;SDS011;59118;54.322;18.576;2022-09-09T14:43:37;22.20;;;12.70;;
71320;SDS011;59118;54.322;18.576;2022-09-09T14:46:05;25.30;;;13.65;;
71320;SDS011;59118;54.322;18.576;2022-09-09T14:48:33;22.73;;;13.18;;
71320;SDS011;59118;54.322;18.576;2022-09-09T14:51:07;27.10;;;14.70;;
71320;SDS011;59118;54.322;18.576;2022-09-09T14:53:34;25.30;;;13.57;;
71320;SDS011;59118;54.322;18.576;2022-09-09T14:56:09;24.47;;;13.73;;
71320;SDS011;59118;54.322;18.576;2022-09-09T14:58:37;25.50;;;14.18;;
71320;SDS011;59118;54.322;18.576;2022-09-09T15:01:08;21.80;;;13.80;;
71320;SDS011;59118;54.322;18.576;2022-09-09T15:03:39;20.83;;;13.73;;
71320;SDS011;59118;54.322;18.576;2022-09-09T15:06:12;26.40;;;15.52;;
71320;SDS011;59118;54.322;18.576;2022-09-09T15:08:41;27.33;;;15.13;;
71320;SDS011;59118;54.322;18.576;2022-09-09T15:11:09;26.25;;;15.57;;
71320;SDS011;59118;54.322;18.576;2022-09-09T15:13:37;25.85;;;15.40;;
71320;SDS011;59118;54.322;18.576;2022-09-09T15:16:06;23.45;;;14.35;;
71320;SDS011;59118;54.322;18.576;2022-09-09T15:18:34;22.20;;;14.30;;
71320;SDS011;59118;54.322;18.576;2022-09-09T15:21:02;22.43;;;13.70;;
71320;SDS011;59118;54.322;18.576;2022-09-09T15:23:31;24.40;;;14.73;;
71320;SDS011;59118;54.322;18.576;2022-09-09T15:25:58;25.27;;;14.60;;
71320;SDS011;59118;54.322;18.576;2022-09-09T15:28:25;25.08;;;15.30;;
71320;SDS011;59118;54.322;18.576;2022-09-09T15:30:52;25.75;;;15.10;;
71320;SDS011;59118;54.322;18.576;2022-09-09T15:33:20;29.17;;;16.50;;
71320;SDS011;59118;54.322;18.576;2022-09-09T15:35:47;28.65;;;16.38;;
71320;SDS011;59118;54.322;18.576;2022-09-09T15:38:16;27.65;;;16.13;;
71320;SDS011;59118;54.322;18.576;2022-09-09T15:40:43;27.15;;;17.05;;
71320;SDS011;59118;54.322;18.576;2022-09-09T15:43:10;25.15;;;15.13;;
71320;SDS011;59118;54.322;18.576;2022-09-09T15:45:37;29.97;;;16.67;;
71320;SDS011;59118;54.322;18.576;2022-09-09T15:48:05;27.83;;;16.48;;
71320;SDS011;59118;54.322;18.576;2022-09-09T15:50:32;29.38;;;17.80;;
71320;SDS011;59118;54.322;18.576;2022-09-09T15:52:59;28.25;;;16.23;;
71320;SDS011;59118;54.322;18.576;2022-09-09T15:55:26;27.73;;;17.55;;
71320;SDS011;59118;54.322;18.576;2022-09-09T15:57:52;25.27;;;15.53;;
71320;SDS011;59118;54.322;18.576;2022-09-09T16:00:19;28.27;;;16.42;;
71320;SDS011;59118;54.322;18.576;2022-09-09T16:02:47;28.27;;;16.13;;
71320;SDS011;59118;54.322;18.576;2022-09-09T16:05:14;25.10;;;15.35;;
71320;SDS011;59118;54.322;18.576;2022-09-09T16:07:40;31.77;;;16.77;;
71320;SDS011;59118;54.322;18.576;2022-09-09T16:10:08;26.93;;;16.87;;
71320;SDS011;59118;54.322;18.576;2022-09-09T16:12:35;32.38;;;17.65;;
71320;SDS011;59118;54.322;18.576;2022-09-09T16:15:01;30.63;;;17.02;;
71320;SDS011;59118;54.322;18.576;2022-09-09T16:17:28;31.88;;;18.00;;
71320;SDS011;59118;54.322;18.576;2022-09-09T16:19:54;30.42;;;18.17;;
71320;SDS011;59118;54.322;18.576;2022-09-09T16:22:23;30.23;;;18.27;;
71320;SDS011;59118;54.322;18.576;2022-09-09T16:24:50;32.75;;;18.52;;
71320;SDS011;59118;54.322;18.576;2022-09-09T16:27:17;36.83;;;19.63;;
71320;SDS011;59118;54.322;18.576;2022-09-09T16:29:44;31.42;;;15.80;;
71320;SDS011;59118;54.322;18.576;2022-09-09T16:32:11;30.17;;;17.35;;
71320;SDS011;59118;54.322;18.576;2022-09-09T16:34:38;32.67;;;17.70;;
71320;SDS011;59118;54.322;18.576;2022-09-09T16:37:04;33.80;;;18.45;;
71320;SDS011;59118;54.322;18.576;2022-09-09T16:39:31;32.22;;;17.73;;
71320;SDS011;59118;54.322;18.576;2022-09-09T16:41:57;32.33;;;17.55;;
71320;SDS011;59118;54.322;18.576;2022-09-09T16:44:24;30.17;;;17.20;;
71320;SDS011;59118;54.322;18.576;2022-09-09T16:46:52;33.33;;;17.77;;
71320;SDS011;59118;54.322;18.576;2022-09-09T16:49:25;30.83;;;17.77;;